Time;durP1;ratioP1;P1;durP2;ratioP2;P2;SDS_P1;SDS_P2;PMS_P1;PMS_P2;Temp;Humidity;BMP_temperature;BMP_pressure;BME280_temperature;BME280_humidity;BME280_pressure;Samples;Min_cycle;Max_cycle;Signal;HPM_P1;HPM_P2
2022/06/19 00:00:39;;;;;;;;;;;;;;;-149.78;100.00;50166.34;5089710;28;20322;-74
2022/06/19 00:03:07;;;;;;;;;;;;;;;-149.78;100.00;50166.34;5090577;28;20409;-74
2022/06/19 00:05:33;;;;;;;;;;;;;;;-149.78;100.00;50166.34;5083091;28;20006;-74
2022/06/19 00:07:59;;;;;;;;;;;;;;;-149.78;100.00;50182.00;5078766;28;20055;-74
2022/06/19 00:10:24;;;;;;;;;;;;;;;-149.78;100.00;50174.19;5100180;28;20361;-74
2022/06/19 00:12:50;;;;;;;;;;;;;;;-149.78;100.00;50189.81;5083949;28;20240;-74
2022/06/19 00:15:16;;;;;;;;;;;;;;;-149.78;100.00;50185.91;5075313;28;20368;-73
2022/06/19 00:17:43;;;;;;;;;;;;;;;-149.78;100.00;50154.63;5098209;28;19981;-74
2022/06/19 00:20:09;;;;;;;;;;;;;;;-149.78;100.00;50154.63;5099094;28;19920;-74
2022/06/19 00:22:35;;;;;;;;;;;;;;;-149.78;100.00;50205.47;5098792;28;20267;-74
2022/06/19 00:25:00;;;;;;;;;;;;;;;-149.78;100.00;50189.81;5083629;28;19924;-74
2022/06/19 00:27:26;;;;;;;;;;;;;;;-149.78;100.00;50162.44;5093579;28;19923;-74
2022/06/19 00:29:52;;;;;;;;;;;;;;;-149.78;100.00;50189.81;5096305;28;19927;-73
2022/06/19 00:32:18;;;;;;;;;;;;;;;-149.78;100.00;50170.25;5099700;28;19919;-73
2022/06/19 00:34:44;;;;;;;;;;;;;;;-149.78;100.00;50185.91;5101145;28;20307;-74
2022/06/19 00:37:10;;;;;;;;;;;;;;;-149.78;100.00;50160.50;5101626;28;20010;-73
2022/06/19 00:39:39;;;;;;;;;;;;;;;-149.78;100.00;50174.19;5091841;28;19923;-73
2022/06/19 00:42:09;;;;;;;;;;;;;;;-149.78;100.00;50154.63;5095492;28;19916;-73
2022/06/19 00:44:34;;;;;;;;;;;;;;;-149.78;100.00;50178.09;5098427;28;20620;-74
2022/06/19 00:47:13;;;;;;;;;;;;;;;-149.78;100.00;50201.56;5100977;28;19978;-74
2022/06/19 00:49:41;;;;;;;;;;;;;;;-149.78;100.00;50221.13;5094321;28;19961;-74
2022/06/19 00:52:09;;;;;;;;;;;;;;;-149.78;100.00;50178.09;5102328;28;19916;-73
2022/06/19 00:54:54;;;;;;;;;;;;;;;-149.78;100.00;50178.09;5098042;28;20393;-73
2022/06/19 00:57:19;;;;;;;;;;;;;;;-149.78;100.00;50158.53;5083490;28;20382;-73
2022/06/19 00:59:52;;;;;;;;;;;;;;;-149.78;100.00;50209.38;5088802;28;19920;-73
2022/06/19 01:02:18;;;;;;;;;;;;;;;-149.78;100.00;50211.34;5099675;28;20002;-73
2022/06/19 01:04:49;;;;;;;;;;;;;;;-149.78;100.00;50162.44;5080714;28;19924;-73
2022/06/19 01:07:15;;;;;;;;;;;;;;;-149.78;100.00;50189.81;5078978;28;20029;-73
2022/06/19 01:09:40;;;;;;;;;;;;;;;-149.78;100.00;50209.38;5098640;28;20351;-73
2022/06/19 01:12:08;;;;;;;;;;;;;;;-149.78;100.00;50178.09;5087057;28;19921;-74
2022/06/19 01:14:34;;;;;;;;;;;;;;;-149.78;100.00;50185.91;5082788;28;19920;-74
2022/06/19 01:17:01;;;;;;;;;;;;;;;-149.78;100.00;50187.88;5094443;28;19926;-74
2022/06/19 01:19:29;;;;;;;;;;;;;;;-149.78;100.00;50182.00;5095748;28;19995;-73
2022/06/19 01:22:03;;;;;;;;;;;;;;;-149.78;100.00;50209.38;5080584;28;19917;-74
2022/06/19 01:24:38;;;;;;;;;;;;;;;-149.78;100.00;50209.38;5092704;28;19969;-73
2022/06/19 01:27:05;;;;;;;;;;;;;;;-149.78;100.00;50182.00;5101817;28;19916;-74
2022/06/19 01:29:32;;;;;;;;;;;;;;;-149.78;100.00;50178.09;5096070;28;19924;-73
2022/06/19 01:32:00;;;;;;;;;;;;;;;-149.78;100.00;50189.81;5086206;28;19915;-74
2022/06/19 01:34:35;;;;;;;;;;;;;;;-149.78;100.00;50178.09;5095984;28;19994;-73
2022/06/19 01:37:00;;;;;;;;;;;;;;;-149.78;100.00;50185.91;5099730;28;20336;-74
2022/06/19 01:39:28;;;;;;;;;;;;;;;-149.78;100.00;50166.34;5084159;28;19970;-74
2022/06/19 01:41:54;;;;;;;;;;;;;;;-149.78;100.00;50221.13;5077329;28;19912;-73
2022/06/19 01:44:19;;;;;;;;;;;;;;;-149.78;100.00;50205.47;5096329;28;19923;-73
2022/06/19 01:46:45;;;;;;;;;;;;;;;-149.78;100.00;50221.13;5096754;28;19915;-73
2022/06/19 01:49:11;;;;;;;;;;;;;;;-149.78;100.00;50205.47;5079466;28;20045;-73
2022/06/19 01:51:37;;;;;;;;;;;;;;;-149.78;100.00;50232.84;5090530;28;19974;-73
2022/06/19 01:54:07;;;;;;;;;;;;;;;-149.78;100.00;50225.03;5084774;28;19923;-73
2022/06/19 01:56:34;;;;;;;;;;;;;;;-149.78;100.00;50178.09;5090904;28;19924;-73
2022/06/19 01:59:08;;;;;;;;;;;;;;;-149.78;100.00;50178.09;5101792;28;20010;-73
2022/06/19 02:01:35;;;;;;;;;;;;;;;-149.78;100.00;50213.28;5093120;28;19923;-73
2022/06/19 02:04:01;;;;;;;;;;;;;;;-149.78;100.00;50211.34;5083300;28;19920;-74
2022/06/19 02:06:29;;;;;;;;;;;;;;;-149.78;100.00;50236.75;5090822;28;19941;-73
2022/06/19 02:08:55;;;;;;;;;;;;;;;-149.78;100.00;50197.66;5096721;28;19916;-73
2022/06/19 02:11:22;;;;;;;;;;;;;;;-149.78;100.00;50201.56;5097343;28;19998;-74
2022/06/19 02:13:48;;;;;;;;;;;;;;;-149.78;100.00;50228.94;5085458;28;19923;-74
2022/06/19 02:16:19;;;;;;;;;;;;;;;-149.78;100.00;50228.94;5089366;28;19977;-74
2022/06/19 02:18:47;;;;;;;;;;;;;;;-149.78;100.00;50201.56;5101046;28;19926;-73
2022/06/19 02:21:14;;;;;;;;;;;;;;;-149.78;100.00;50236.75;5092279;28;20279;-74
2022/06/19 02:23:40;;;;;;;;;;;;;;;-149.78;100.00;50213.28;5095159;28;19916;-74
2022/06/19 02:26:07;;;;;;;;;;;;;;;-149.78;100.00;50219.16;5090311;28;19985;-73
2022/06/19 02:28:36;;;;;;;;;;;;;;;-149.78;100.00;50215.25;5090105;28;19969;-74
2022/06/19 02:31:02;;;;;;;;;;;;;;;-149.78;100.00;50262.19;5098386;28;19919;-73
2022/06/19 02:33:30;;;;;;;;;;;;;;;-149.78;100.00;50221.13;5082096;28;19920;-74
2022/06/19 02:35:57;;;;;;;;;;;;;;;-149.78;100.00;50189.81;5088889;28;19923;-74
2022/06/19 02:38:23;;;;;;;;;;;;;;;-149.78;100.00;50217.19;5097054;28;19920;-74
2022/06/19 02:40:52;;;;;;;;;;;;;;;-149.78;100.00;50258.28;5098807;28;19944;-74
2022/06/19 02:43:18;;;;;;;;;;;;;;;-149.78;100.00;50260.22;5086495;28;19924;-74
2022/06/19 02:45:44;;;;;;;;;;;;;;;-149.78;100.00;50185.91;5098440;28;19923;-74
2022/06/19 02:48:21;;;;;;;;;;;;;;;-149.78;100.00;50268.03;5095053;28;20375;-74
2022/06/19 02:50:46;;;;;;;;;;;;;;;-149.78;100.00;50234.81;5087634;28;19956;-74
2022/06/19 02:53:12;;;;;;;;;;;;;;;-149.78;100.00;50225.03;5095325;28;19951;-74
2022/06/19 02:55:37;;;;;;;;;;;;;;;-149.78;100.00;50260.22;5098598;28;20283;-74
2022/06/19 02:58:03;;;;;;;;;;;;;;;-149.78;100.00;50221.13;5095261;28;19931;-73
2022/06/19 03:00:28;;;;;;;;;;;;;;;-149.78;100.00;50217.19;5094596;28;19931;-73
2022/06/19 03:02:59;;;;;;;;;;;;;;;-149.78;100.00;50201.56;5075348;28;19925;-73
2022/06/19 03:05:27;;;;;;;;;;;;;;;-149.78;100.00;50213.28;5094136;28;20363;-74
2022/06/19 03:07:53;;;;;;;;;;;;;;;-149.78;100.00;50217.19;5085247;28;20436;-74
2022/06/19 03:10:18;;;;;;;;;;;;;;;-149.78;100.00;50236.75;5088973;28;19919;-74
2022/06/19 03:12:44;;;;;;;;;;;;;;;-149.78;100.00;50234.81;5092153;28;19926;-74
2022/06/19 03:15:10;;;;;;;;;;;;;;;-149.78;100.00;50232.84;5083311;28;20012;-73
2022/06/19 03:17:35;;;;;;;;;;;;;;;-149.78;100.00;50213.28;5092186;28;19963;-74
2022/06/19 03:20:02;;;;;;;;;;;;;;;-149.78;100.00;50197.66;5093621;28;19927;-74
2022/06/19 03:22:27;;;;;;;;;;;;;;;-149.78;100.00;50225.03;5102324;28;19955;-73
2022/06/19 03:24:53;;;;;;;;;;;;;;;-149.78;100.00;50215.25;5090324;28;20295;-74
2022/06/19 03:27:18;;;;;;;;;;;;;;;-149.78;100.00;50211.34;5085919;28;20372;-74
2022/06/19 03:29:44;;;;;;;;;;;;;;;-149.78;100.00;50219.16;5074713;28;19920;-73
2022/06/19 03:32:10;;;;;;;;;;;;;;;-149.78;100.00;50199.59;5102470;28;20025;-74
2022/06/19 03:34:36;;;;;;;;;;;;;;;-149.78;100.00;50189.81;5095659;28;19941;-74
2022/06/19 03:37:01;;;;;;;;;;;;;;;-149.78;100.00;50217.19;5092480;28;19928;-74
2022/06/19 03:39:27;;;;;;;;;;;;;;;-149.78;100.00;50228.94;5076210;28;20410;-74
2022/06/19 03:41:53;;;;;;;;;;;;;;;-149.78;100.00;50189.81;5081722;28;19916;-74
2022/06/19 03:44:18;;;;;;;;;;;;;;;-149.78;100.00;50225.03;5098860;28;20019;-74
2022/06/19 03:46:44;;;;;;;;;;;;;;;-149.78;100.00;50248.50;5084334;28;19916;-74
2022/06/19 03:49:09;;;;;;;;;;;;;;;-149.78;100.00;50228.94;5093010;28;19931;-74
2022/06/19 03:51:35;;;;;;;;;;;;;;;-149.78;100.00;50248.50;5092691;28;19920;-74
2022/06/19 03:54:00;;;;;;;;;;;;;;;-149.78;100.00;50236.75;5096850;28;20368;-74
2022/06/19 03:56:28;;;;;;;;;;;;;;;-149.78;100.00;50209.38;5088706;28;19924;-74
2022/06/19 03:58:54;;;;;;;;;;;;;;;-149.78;100.00;50244.59;5089688;28;19972;-74
2022/06/19 04:01:33;;;;;;;;;;;;;;;-149.78;100.00;50213.28;5083772;28;19939;-74
2022/06/19 04:03:59;;;;;;;;;;;;;;;-149.78;100.00;50232.84;5093419;28;19920;-74
2022/06/19 04:06:26;;;;;;;;;;;;;;;-149.78;100.00;50228.94;5090749;28;19916;-73
2022/06/19 04:08:52;;;;;;;;;;;;;;;-149.78;100.00;50219.16;5086208;28;19916;-74
2022/06/19 04:11:19;;;;;;;;;;;;;;;-149.78;100.00;50226.97;5089700;28;19927;-74
2022/06/19 04:13:44;;;;;;;;;;;;;;;-149.78;100.00;50197.66;5096085;28;19921;-74
2022/06/19 04:16:19;;;;;;;;;;;;;;;-149.78;100.00;50242.63;5085364;28;19933;-73
2022/06/19 04:18:45;;;;;;;;;;;;;;;-149.78;100.00;50209.38;5089761;28;19920;-73
2022/06/19 04:21:12;;;;;;;;;;;;;;;-149.78;100.00;50232.84;5103306;28;19923;-73
2022/06/19 04:23:38;;;;;;;;;;;;;;;-149.78;100.00;50217.19;5087486;28;20246;-73
2022/06/19 04:26:06;;;;;;;;;;;;;;;-149.78;100.00;50236.75;5094740;28;19916;-73
2022/06/19 04:28:31;;;;;;;;;;;;;;;-149.78;100.00;50201.56;5090431;28;19915;-73
2022/06/19 04:30:57;;;;;;;;;;;;;;;-149.78;100.00;50228.94;5087610;28;19931;-73
2022/06/19 04:33:23;;;;;;;;;;;;;;;-149.78;100.00;50209.38;5099183;28;20267;-73
2022/06/19 04:35:49;;;;;;;;;;;;;;;-149.78;100.00;50236.75;5097924;28;20022;-73
2022/06/19 04:38:15;;;;;;;;;;;;;;;-149.78;100.00;50221.13;5086958;28;19924;-73
2022/06/19 04:40:40;;;;;;;;;;;;;;;-149.78;100.00;50221.13;5087888;28;19926;-72
2022/06/19 04:43:07;;;;;;;;;;;;;;;-149.78;100.00;50223.06;5105628;28;20402;-73
2022/06/19 04:45:32;;;;;;;;;;;;;;;-149.78;100.00;50189.81;5090287;28;19920;-73
2022/06/19 04:47:58;;;;;;;;;;;;;;;-149.78;100.00;50205.47;5089583;28;19923;-73
2022/06/19 04:50:24;;;;;;;;;;;;;;;-149.78;100.00;50226.97;5111872;28;19927;-73
2022/06/19 04:52:49;;;;;;;;;;;;;;;-149.78;100.00;50201.56;5097746;28;19916;-73
2022/06/19 04:55:16;;;;;;;;;;;;;;;-149.78;100.00;50228.94;5081254;28;20257;-74
2022/06/19 04:57:42;;;;;;;;;;;;;;;-149.78;100.00;50178.09;5084150;28;19956;-73
2022/06/19 05:00:10;;;;;;;;;;;;;;;-149.78;100.00;50217.19;5101911;28;20452;-73
2022/06/19 05:02:36;;;;;;;;;;;;;;;-149.78;100.00;50205.47;5087278;28;20042;-74
2022/06/19 05:05:03;;;;;;;;;;;;;;;-149.78;100.00;50221.13;5076376;28;19921;-74
2022/06/19 05:07:29;;;;;;;;;;;;;;;-149.78;100.00;50228.94;5098346;28;19920;-74
2022/06/19 05:09:55;;;;;;;;;;;;;;;-149.78;100.00;50209.38;5063883;28;19921;-74
2022/06/19 05:12:20;;;;;;;;;;;;;;;-149.78;100.00;50209.38;5094717;28;19983;-73
2022/06/19 05:14:47;;;;;;;;;;;;;;;-149.78;100.00;50199.59;5106669;28;20273;-73
2022/06/19 05:17:13;;;;;;;;;;;;;;;-149.78;100.00;50189.81;5083165;28;19924;-74
2022/06/19 05:19:40;;;;;;;;;;;;;;;-149.78;100.00;50197.66;5079628;28;19920;-74
2022/06/19 05:22:06;;;;;;;;;;;;;;;-149.78;100.00;50185.91;5102350;28;20356;-74
2022/06/19 05:24:31;;;;;;;;;;;;;;;-149.78;100.00;50201.56;5093741;28;20406;-74
2022/06/19 05:26:57;;;;;;;;;;;;;;;-149.78;100.00;50205.47;5107913;27;20367;-74
2022/06/19 05:29:23;;;;;;;;;;;;;;;-149.78;100.00;50164.41;5089072;28;20371;-74
2022/06/19 05:31:49;;;;;;;;;;;;;;;-149.78;100.00;50221.13;5094835;28;19923;-74
2022/06/19 05:34:14;;;;;;;;;;;;;;;-149.78;100.00;50166.34;5088299;28;19923;-73
2022/06/19 05:36:40;;;;;;;;;;;;;;;-149.78;100.00;50183.97;5088161;28;20018;-73
2022/06/19 05:39:06;;;;;;;;;;;;;;;-149.78;100.00;50182.00;5099935;28;19967;-74
2022/06/19 05:41:32;;;;;;;;;;;;;;;-149.78;100.00;50185.91;5094436;28;19920;-74
2022/06/19 05:43:57;;;;;;;;;;;;;;;-149.78;100.00;50193.72;5101030;28;20725;-74
2022/06/19 05:46:23;;;;;;;;;;;;;;;-149.78;100.00;50158.53;5104498;28;19922;-73
2022/06/19 05:48:50;;;;;;;;;;;;;;;-149.78;100.00;50170.25;5087619;28;20038;-74
2022/06/19 05:51:15;;;;;;;;;;;;;;;-149.78;100.00;50232.84;5093750;28;20378;-73
2022/06/19 05:53:42;;;;;;;;;;;;;;;-149.78;100.00;50166.34;5100009;28;19924;-73
2022/06/19 05:56:07;;;;;;;;;;;;;;;-149.78;100.00;50213.28;5091548;28;19924;-73
2022/06/19 05:58:34;;;;;;;;;;;;;;;-149.78;100.00;50193.72;5094366;28;19924;-73
2022/06/19 06:01:00;;;;;;;;;;;;;;;-149.78;100.00;50189.81;5095708;28;19920;-73
2022/06/19 06:03:27;;;;;;;;;;;;;;;-149.78;100.00;50197.66;5088252;28;19985;-73
2022/06/19 06:05:53;;;;;;;;;;;;;;;-149.78;100.00;50144.84;5100663;28;19920;-73
2022/06/19 06:08:18;;;;;;;;;;;;;;;-149.78;100.00;50164.41;5100607;28;19930;-73
2022/06/19 06:10:44;;;;;;;;;;;;;;;-149.78;100.00;50180.03;5100384;28;19955;-73
2022/06/19 06:13:10;;;;;;;;;;;;;;;-149.78;100.00;50172.22;5109278;28;19919;-73
2022/06/19 06:15:36;;;;;;;;;;;;;;;-149.78;100.00;50199.59;5086334;28;19981;-73
2022/06/19 06:18:03;;;;;;;;;;;;;;;-149.78;100.00;50138.97;5087836;28;19925;-73
2022/06/19 06:20:29;;;;;;;;;;;;;;;-149.78;100.00;50172.22;5073545;28;19921;-73
2022/06/19 06:22:55;;;;;;;;;;;;;;;-149.78;100.00;50189.81;5086594;28;19916;-74
2022/06/19 06:25:20;;;;;;;;;;;;;;;-149.78;100.00;50187.88;5091323;28;19920;-73
2022/06/19 06:27:47;;;;;;;;;;;;;;;-149.78;100.00;50158.53;5087904;28;19920;-73
2022/06/19 06:30:13;;;;;;;;;;;;;;;-149.78;100.00;50178.09;5088058;28;19927;-73
2022/06/19 06:32:38;;;;;;;;;;;;;;;-149.78;100.00;50178.09;5086665;28;19924;-73
2022/06/19 06:35:04;;;;;;;;;;;;;;;-149.78;100.00;50185.91;5086634;28;19920;-73
2022/06/19 06:37:29;;;;;;;;;;;;;;;-149.78;100.00;50203.50;5083973;28;20291;-73
2022/06/19 06:39:55;;;;;;;;;;;;;;;-149.78;100.00;50170.25;5085999;28;19926;-73
2022/06/19 06:42:21;;;;;;;;;;;;;;;-149.78;100.00;50138.97;5083545;28;20266;-72
2022/06/19 06:44:47;;;;;;;;;;;;;;;-149.78;100.00;50166.34;5096774;28;19920;-72
2022/06/19 06:47:12;;;;;;;;;;;;;;;-149.78;100.00;50156.56;5056750;28;19920;-70
2022/06/19 06:49:38;;;;;;;;;;;;;;;-149.78;100.00;50221.13;5090455;28;19916;-73
2022/06/19 06:52:07;;;;;;;;;;;;;;;-149.78;100.00;50162.44;5088703;28;19916;-75
2022/06/19 06:54:37;;;;;;;;;;;;;;;-149.78;100.00;50182.00;5093501;28;19920;-74
2022/06/19 06:57:02;;;;;;;;;;;;;;;-149.78;100.00;50182.00;5077143;28;19923;-72
2022/06/19 06:59:28;;;;;;;;;;;;;;;-149.78;100.00;50185.91;5078296;28;20360;-72
2022/06/19 07:01:54;;;;;;;;;;;;;;;-149.78;100.00;50189.81;5090017;28;19923;-74
2022/06/19 07:04:19;;;;;;;;;;;;;;;-149.78;100.00;50189.81;5084752;28;19927;-72
2022/06/19 07:06:45;;;;;;;;;;;;;;;-149.78;100.00;50205.47;5083246;28;19916;-72
2022/06/19 07:09:10;;;;;;;;;;;;;;;-149.78;100.00;50183.97;5088513;28;19920;-71
2022/06/19 07:11:38;;;;;;;;;;;;;;;-149.78;100.00;50182.00;5087266;28;20260;-72
2022/06/19 07:14:04;;;;;;;;;;;;;;;-149.78;100.00;50176.13;5081827;28;20008;-71
2022/06/19 07:16:30;;;;;;;;;;;;;;;-149.78;100.00;50166.34;5076861;28;19931;-72
2022/06/19 07:18:56;;;;;;;;;;;;;;;-149.78;100.00;50205.47;5083839;28;19920;-71
2022/06/19 07:21:21;;;;;;;;;;;;;;;-149.78;100.00;50197.66;5076986;28;19924;-71
2022/06/19 07:23:47;;;;;;;;;;;;;;;-149.78;100.00;50123.34;5076314;28;19921;-71
2022/06/19 07:26:14;;;;;;;;;;;;;;;-149.78;100.00;50170.25;5080009;28;20420;-70
2022/06/19 07:28:40;;;;;;;;;;;;;;;-149.78;100.00;50146.81;5080756;28;19928;-71
2022/06/19 07:31:06;;;;;;;;;;;;;;;-149.78;100.00;50146.81;5084081;28;19916;-71
2022/06/19 07:33:33;;;;;;;;;;;;;;;-149.78;100.00;50162.44;5078703;28;19916;-71
2022/06/19 07:35:59;;;;;;;;;;;;;;;-149.78;100.00;50164.41;5093025;28;19920;-70
2022/06/19 07:38:25;;;;;;;;;;;;;;;-149.78;100.00;50131.16;5081207;28;20291;-70
2022/06/19 07:40:51;;;;;;;;;;;;;;;-149.78;100.00;50176.13;5073516;28;19928;-70
2022/06/19 07:43:16;;;;;;;;;;;;;;;-149.78;100.00;50174.19;5079726;28;20356;-70
2022/06/19 07:45:42;;;;;;;;;;;;;;;-149.78;100.00;50189.81;5078800;28;20356;-70
2022/06/19 07:50:53;;;;;;;;;;;;;;;-149.78;100.00;50150.72;5077616;28;19916;-70
2022/06/19 07:53:19;;;;;;;;;;;;;;;-149.78;100.00;50205.47;5078688;28;20386;-70
2022/06/19 07:55:45;;;;;;;;;;;;;;;-149.78;100.00;50135.06;5084311;28;19920;-70
2022/06/19 07:58:10;;;;;;;;;;;;;;;-149.78;100.00;50127.25;5085739;28;19931;-69
2022/06/19 08:00:36;;;;;;;;;;;;;;;-149.78;100.00;50158.53;5082603;28;19981;-69
2022/06/19 08:03:02;;;;;;;;;;;;;;;-149.78;100.00;50127.25;5071720;28;19932;-70
2022/06/19 08:05:30;;;;;;;;;;;;;;;-149.78;100.00;50178.09;5076405;28;19942;-70
2022/06/19 08:07:59;;;;;;;;;;;;;;;-149.78;100.00;50185.91;5077623;28;19936;-70
2022/06/19 08:10:30;;;;;;;;;;;;;;;-149.78;100.00;50178.09;5070871;28;19916;-70
2022/06/19 08:12:57;;;;;;;;;;;;;;;-149.78;100.00;50197.66;5075268;28;19916;-70
2022/06/19 08:15:23;;;;;;;;;;;;;;;-149.78;100.00;50170.25;5072301;28;19924;-70
2022/06/19 08:17:48;;;;;;;;;;;;;;;-149.78;100.00;50170.25;5075719;28;19920;-70
2022/06/19 08:20:16;;;;;;;;;;;;;;;-149.78;100.00;50170.25;5077857;28;20278;-70
2022/06/19 08:22:42;;;;;;;;;;;;;;;-149.78;100.00;50178.09;5084672;28;19920;-70
2022/06/19 08:25:09;;;;;;;;;;;;;;;-149.78;100.00;50154.63;5076052;28;20011;-70
2022/06/19 08:27:41;;;;;;;;;;;;;;;-149.78;100.00;50160.50;5078216;28;19920;-70
2022/06/19 08:30:17;;;;;;;;;;;;;;;-149.78;100.00;50162.44;5083019;28;19955;-71
2022/06/19 08:32:42;;;;;;;;;;;;;;;-149.78;100.00;50148.75;5074706;28;19920;-71
2022/06/19 08:35:08;;;;;;;;;;;;;;;-149.78;100.00;50193.72;5082920;28;20268;-71
2022/06/19 08:37:35;;;;;;;;;;;;;;;-149.78;100.00;50205.47;5076251;28;19963;-71
2022/06/19 08:40:01;;;;;;;;;;;;;;;-149.78;100.00;50154.63;5082821;28;19920;-71
2022/06/19 08:42:45;;;;;;;;;;;;;;;-149.78;100.00;50174.19;5074791;28;20308;-71
2022/06/19 08:45:13;;;;;;;;;;;;;;;-149.78;100.00;50213.28;5078098;28;20387;-71
2022/06/19 08:48:02;;;;;;;;;;;;;;;-149.78;100.00;50189.81;5081995;28;19923;-71
2022/06/19 08:50:28;;;;;;;;;;;;;;;-149.78;100.00;50189.81;5071163;28;19962;-71
2022/06/19 08:52:56;;;;;;;;;;;;;;;-149.78;100.00;50178.09;5082339;28;20337;-71
2022/06/19 08:55:24;;;;;;;;;;;;;;;-149.78;100.00;50189.81;5081283;28;20038;-71
2022/06/19 08:57:57;;;;;;;;;;;;;;;-149.78;100.00;50166.34;5087664;28;19920;-71
2022/06/19 09:00:41;;;;;;;;;;;;;;;-149.78;100.00;50170.25;5079181;28;19917;-71
2022/06/19 09:03:06;;;;;;;;;;;;;;;-149.78;100.00;50172.22;5084822;28;19926;-70
2022/06/19 09:05:45;;;;;;;;;;;;;;;-149.78;100.00;50168.31;5078203;28;19917;-71
2022/06/19 09:08:11;;;;;;;;;;;;;;;-149.78;100.00;50170.25;5078386;28;19924;-70
2022/06/19 09:10:43;;;;;;;;;;;;;;;-149.78;100.00;50137.03;5086189;28;19922;-70
2022/06/19 09:13:28;;;;;;;;;;;;;;;-149.78;100.00;50154.63;5076106;28;19985;-70
2022/06/19 09:15:54;;;;;;;;;;;;;;;-149.78;100.00;50084.22;5080915;28;19923;-70
2022/06/19 09:18:22;;;;;;;;;;;;;;;-149.78;100.00;50049.03;5074635;28;20018;-70
2022/06/19 09:21:05;;;;;;;;;;;;;;;-149.78;100.00;50076.41;5077669;28;19967;-70
2022/06/19 09:23:31;;;;;;;;;;;;;;;-149.78;87.43;50060.75;5082163;28;19971;-70
2022/06/19 09:26:02;;;;;;;;;;;;;;;-149.78;76.73;50084.22;5079376;28;19948;-70
2022/06/19 09:28:37;;;;;;;;;;;;;;;-149.78;86.43;50092.03;5087872;28;19916;-70
2022/06/19 09:31:11;;;;;;;;;;;;;;;-149.78;92.33;50095.94;5084773;28;19923;-70
2022/06/19 09:33:37;;;;;;;;;;;;;;;-149.78;99.29;50107.69;5086507;28;19917;-70
2022/06/19 09:36:02;;;;;;;;;;;;;;;-149.78;93.46;50123.34;5074816;28;20300;-70
2022/06/19 09:38:37;;;;;;;;;;;;;;;-149.78;100.00;50115.50;5083321;28;19928;-70
2022/06/19 09:41:05;;;;;;;;;;;;;;;-149.78;100.00;50117.47;5081191;28;19962;-71
2022/06/19 09:43:35;;;;;;;;;;;;;;;-149.78;100.00;50131.16;5081176;28;19924;-71
2022/06/19 09:46:15;;;;;;;;;;;;;;;-149.78;100.00;50138.97;5085848;28;19970;-71
2022/06/19 09:48:41;;;;;;;;;;;;;;;-149.78;100.00;50109.66;5082527;28;19968;-71
2022/06/19 09:51:09;;;;;;;;;;;;;;;-149.78;100.00;50115.50;5078042;28;20351;-71
2022/06/19 09:53:47;;;;;;;;;;;;;;;-149.78;100.00;50146.81;5080207;28;19927;-71
2022/06/19 09:56:17;;;;;;;;;;;;;;;-149.78;100.00;50131.16;5085698;28;20377;-70
2022/06/19 09:58:47;;;;;;;;;;;;;;;-149.78;100.00;50154.63;5091524;28;19963;-70
2022/06/19 10:01:14;;;;;;;;;;;;;;;-149.78;100.00;50127.25;5084806;28;19916;-70
2022/06/19 10:03:42;;;;;;;;;;;;;;;-149.78;100.00;50111.59;5080266;28;20364;-71
2022/06/19 10:06:10;;;;;;;;;;;;;;;-149.78;100.00;50146.81;5090620;28;20394;-70
2022/06/19 10:08:43;;;;;;;;;;;;;;;-149.78;100.00;50138.97;5085307;28;19946;-71
2022/06/19 10:11:12;;;;;;;;;;;;;;;-149.78;100.00;50135.06;5084156;28;19916;-71
2022/06/19 10:13:53;;;;;;;;;;;;;;;-149.78;100.00;50154.63;5094577;28;19923;-71
2022/06/19 10:16:25;;;;;;;;;;;;;;;-149.78;100.00;50115.50;5088294;28;19922;-71
2022/06/19 10:18:52;;;;;;;;;;;;;;;-149.78;100.00;50131.16;5082255;28;19932;-71
2022/06/19 10:24:37;;;;;;;;;;;;;;;-149.78;100.00;50138.97;5088437;28;20323;-71
2022/06/19 10:27:06;;;;;;;;;;;;;;;-149.78;100.00;50180.03;5059355;28;19922;-71
2022/06/19 10:29:40;;;;;;;;;;;;;;;-149.78;100.00;50115.50;5082184;28;19920;-71
2022/06/19 10:32:15;;;;;;;;;;;;;;;-149.78;100.00;50095.94;5085173;28;19921;-72
2022/06/19 10:34:56;;;;;;;;;;;;;;;-149.78;100.00;50127.25;5085499;28;19931;-71
2022/06/19 10:37:35;;;;;;;;;;;;;;;-149.78;100.00;50097.91;5079356;28;19928;-70
2022/06/19 10:40:09;;;;;;;;;;;;;;;-149.78;100.00;50129.19;5090678;28;19922;-75
2022/06/19 10:42:34;;;;;;;;;;;;;;;-149.78;100.00;50138.97;5079821;28;19966;-73
2022/06/19 10:45:18;;;;;;;;;;;;;;;-149.78;100.00;50099.88;5074395;28;19916;-71
2022/06/19 10:47:53;;;;;;;;;;;;;;;-149.78;100.00;50107.69;5084914;28;19916;-72
2022/06/19 10:50:18;;;;;;;;;;;;;;;-149.78;100.00;50088.13;5088313;28;19967;-72
2022/06/19 10:53:04;;;;;;;;;;;;;;;-149.78;100.00;50060.75;5078690;28;20351;-72
2022/06/19 10:55:48;;;;;;;;;;;;;;;-149.78;100.00;50090.09;5062865;28;20303;-71
2022/06/19 10:58:19;;;;;;;;;;;;;;;-149.78;100.00;50097.91;5083992;28;20385;-71
2022/06/19 11:00:49;;;;;;;;;;;;;;;-149.78;100.00;50103.78;5077732;28;19923;-71
2022/06/19 11:06:11;;;;;;;;;;;;;;;-149.78;100.00;50072.50;5074274;28;20460;-72
2022/06/19 11:08:39;;;;;;;;;;;;;;;-149.78;100.00;50052.94;5078460;28;19953;-72
2022/06/19 11:11:05;;;;;;;;;;;;;;;-149.78;100.00;50088.13;5082920;28;19985;-71
2022/06/19 11:13:53;;;;;;;;;;;;;;;-149.78;100.00;50056.84;5077815;28;20437;-72
2022/06/19 11:16:19;;;;;;;;;;;;;;;-149.78;100.00;50131.16;5074474;28;19916;-71
2022/06/19 11:18:46;;;;;;;;;;;;;;;-149.78;100.00;50080.31;5073908;28;19928;-71
2022/06/19 11:21:20;;;;;;;;;;;;;;;-149.78;100.00;50072.50;5077914;28;19924;-72
2022/06/19 11:23:48;;;;;;;;;;;;;;;-149.78;100.00;50117.47;5086828;28;20040;-71
2022/06/19 11:26:17;;;;;;;;;;;;;;;-149.78;100.00;50123.34;5086377;28;20027;-71
2022/06/19 11:29:06;;;;;;;;;;;;;;;-149.78;100.00;50131.16;5077210;28;19923;-71
2022/06/19 11:31:31;;;;;;;;;;;;;;;-149.78;100.00;50107.69;5076112;28;19916;-71
2022/06/19 11:33:59;;;;;;;;;;;;;;;-149.78;100.00;50092.03;5087200;28;19917;-72
2022/06/19 11:36:24;;;;;;;;;;;;;;;-149.78;100.00;50080.31;5082559;28;19920;-71
2022/06/19 11:38:52;;;;;;;;;;;;;;;-149.78;100.00;50113.56;5089044;28;19978;-72
2022/06/19 11:41:27;;;;;;;;;;;;;;;-149.78;100.00;50127.25;5073689;28;20307;-72
2022/06/19 11:43:59;;;;;;;;;;;;;;;-149.78;97.88;50123.34;5090768;28;19966;-72
2022/06/19 11:46:26;;;;;;;;;;;;;;;-149.78;100.00;50135.06;5080521;28;19923;-72
2022/06/19 11:48:52;;;;;;;;;;;;;;;-149.78;97.96;50131.16;5078159;28;20271;-72
2022/06/19 11:51:20;;;;;;;;;;;;;;;-149.78;100.00;50127.25;5079745;28;19920;-72
2022/06/19 11:53:50;;;;;;;;;;;;;;;-149.78;88.17;50162.44;5081676;28;19916;-71
2022/06/19 11:56:19;;;;;;;;;;;;;;;-149.78;83.96;50115.50;5080861;28;19920;-71
2022/06/19 11:58:46;;;;;;;;;;;;;;;-149.78;77.62;50119.41;5075257;28;19925;-71
2022/06/19 12:01:16;;;;;;;;;;;;;;;-149.78;74.98;50111.59;5081627;28;19923;-70
2022/06/19 12:03:44;;;;;;;;;;;;;;;-149.78;69.80;50103.78;5078231;28;19920;-72
2022/06/19 12:06:11;;;;;;;;;;;;;;;-149.78;71.64;50078.34;5076447;28;20015;-72
2022/06/19 12:08:47;;;;;;;;;;;;;;;-149.78;66.35;50047.06;5077780;28;19973;-72
2022/06/19 12:11:13;;;;;;;;;;;;;;;-149.78;66.06;50090.09;5081848;28;20351;-71
2022/06/19 12:13:40;;;;;;;;;;;;;;;-149.78;58.17;50050.97;5080942;28;19956;-72
2022/06/19 12:16:19;;;;;;;;;;;;;;;-149.78;64.28;50064.66;5079901;28;19921;-73
2022/06/19 12:18:45;;;;;;;;;;;;;;;-149.78;54.71;50054.88;5082089;28;20292;-72
2022/06/19 12:21:22;;;;;;;;;;;;;;;-149.78;52.80;50021.63;5079821;28;20034;-73
2022/06/19 12:24:09;;;;;;;;;;;;;;;-149.78;50.19;50045.09;5086216;28;19916;-74
2022/06/19 12:26:46;;;;;;;;;;;;;;;-149.78;50.48;50049.03;5079405;28;19920;-72
2022/06/19 12:29:14;;;;;;;;;;;;;;;-149.78;52.53;50037.28;5085377;28;19923;-74
2022/06/19 12:31:42;;;;;;;;;;;;;;;-149.78;53.48;50060.75;5080459;28;20004;-72